WetterOnline ( https://www.wetteronline.de )

Wetter aktuell Innsbruck

Aktuelles Wetter: Innsbruck Flughafen (584m)

6-stündlich | Neueste Meldungen
Ortszeit Temperatur Wetter
Fr, 19.07. 14:00 29.5° C fast wolkenlos
Fr, 19.07. 8:00 20.0° C fast wolkenlos
Fr, 19.07. 2:00 19.1° C wolkenlos
Do, 18.07. 20:00 26.9° C leicht bewölkt
Do, 18.07. 14:00 26.5° C wolkenlos
Do, 18.07. 8:00 18.0° C bewölkt
Do, 18.07. 2:00 18.1° C bewölkt
Mi, 17.07. 20:00 18.7° C bewölkt
Ortszeit Temperatur Wetter
Fr, 19.07. 19:00 18.8° C Gewitter
Fr, 19.07. 18:00 19.6° C Gewitter
Fr, 19.07. 17:00 28.2° C leichte Gewitter
Fr, 19.07. 16:00 30.8° C leicht bewölkt
Fr, 19.07. 15:00 29.9° C fast wolkenlos
Fr, 19.07. 14:00 29.5° C fast wolkenlos
Fr, 19.07. 13:00 28.1° C wolkenlos
Ortszeit Relative Feuchte Sichtweite
Fr, 19.07. 14:00 57% 35 km
Fr, 19.07. 8:00 87% 30 km
Fr, 19.07. 2:00 90% 30 km
Do, 18.07. 20:00 64% 45 km
Do, 18.07. 14:00 57% 30 km
Do, 18.07. 8:00 88% 35 km
Do, 18.07. 2:00 88% 30 km
Mi, 17.07. 20:00 89% 40 km
Ortszeit Relative Feuchte Sichtweite
Fr, 19.07. 19:00 96% 8 km
Fr, 19.07. 18:00 87% 6 km
Fr, 19.07. 17:00 54% 30 km
Fr, 19.07. 16:00 50% 45 km
Fr, 19.07. 15:00 49% 55 km
Fr, 19.07. 14:00 57% 35 km
Fr, 19.07. 13:00 58% 35 km
Ortszeit Niederschlagsmenge Niederschlagsart
Fr, 19.07. 14:00 keine Meldung -
Fr, 19.07. 8:00 keine Meldung -
Fr, 19.07. 2:00 keine Meldung -
Do, 18.07. 20:00 keine Meldung -
Do, 18.07. 14:00 keine Meldung -
Do, 18.07. 8:00 keine Meldung -
Do, 18.07. 2:00 keine Meldung -
Mi, 17.07. 20:00 0.9 l/m2 in 12 Std. -
Ortszeit Niederschlagsmenge Niederschlagsart
Fr, 19.07. 19:00 11.0 l/m2 in 1 Std. -
Fr, 19.07. 18:00 4.0 l/m2 in 1 Std. -
Fr, 19.07. 17:00 <0.05 l/m2 in 1 Std. -
Fr, 19.07. 16:00 0.0 l/m2 in 1 Std. -
Fr, 19.07. 15:00 0.0 l/m2 in 1 Std. -
Fr, 19.07. 14:00 0.0 l/m2 in 1 Std. -
Fr, 19.07. 13:00 0.0 l/m2 in 1 Std. -
Ortszeit Stärke Spitze Richtung
km/h Bft. km/h Grad Sektor
Fr, 19.07. 14:00 11 2 - - -
Fr, 19.07. 8:00 11 2 - - -
Fr, 19.07. 2:00 4 1 - - -
Do, 18.07. 20:00 11 2 - - -
Do, 18.07. 14:00 11 2 - - -
Do, 18.07. 8:00 4 1 - - -
Do, 18.07. 2:00 4 1 - - -
Mi, 17.07. 20:00 7 2 - - -
Ortszeit Stärke Spitze Richtung
km/h Bft. km/h Grad Sektor
Fr, 19.07. 19:00 4 1 - - -
Fr, 19.07. 18:00 11 2 68 270° W
Fr, 19.07. 17:00 22 4 - 60° NO
Fr, 19.07. 16:00 18 3 - 70° O
Fr, 19.07. 15:00 11 2 - 60° NO
Fr, 19.07. 14:00 11 2 - - -
Fr, 19.07. 13:00 11 2 - 60° NO
Ortszeit Untergrenze Bedeckung Gattung
total tief tief mittel hoch
Fr, 19.07. 14:00 1800 m 1/8 1/8 - - -
Fr, 19.07. 8:00 1080 m 1/8 1/8 - - -
Fr, 19.07. 2:00 - 0/8 0/8 - - -
Do, 18.07. 20:00 1800 m 3/8 1/8 - - -
Do, 18.07. 14:00 - 0/8 0/8 - - -
Do, 18.07. 8:00 360 m 7/8 6/8 - - -
Do, 18.07. 2:00 1260 m 8/8 7/8 - - -
Mi, 17.07. 20:00 960 m 8/8 6/8 - - -
Ortszeit Bedeckungsgrad in Achtel und Wolkenuntergrenze
Fr, 19.07. 19:00 1(1020m) 5(1500m) 1(1500m)
Fr, 19.07. 18:00 1(900m) 5(1800m) 2(1500m)
Fr, 19.07. 17:00 1(1380m) 5(2100m) 2(1500m)
Fr, 19.07. 16:00 2(2100m)
Fr, 19.07. 15:00 1(2400m)
Fr, 19.07. 14:00 1(1800m)
Fr, 19.07. 13:00 keine Wolken
Ortszeit Luftdruck NN (hPa) Tendenz (hPa in 3 Std.)
Fr, 19.07. 14:00 1013 - 2,3
Fr, 19.07. 8:00 1020 + 0,3
Fr, 19.07. 2:00 1020 + 0,5
Do, 18.07. 20:00 1016 + 0,5
Do, 18.07. 14:00 1016 - 1,6
Do, 18.07. 8:00 1021 - 0,1
Do, 18.07. 2:00 1022 - 0,5
Mi, 17.07. 20:00 1021 + 1,0
Ortszeit Luftdruck NN (hPa) Tendenz (hPa in 3 Std.)
Fr, 19.07. 19:00 1019 + 4,5
Fr, 19.07. 18:00 1016 + 1,6
Fr, 19.07. 17:00 1012 - 1,6
Fr, 19.07. 16:00 1011 - 2,2
Fr, 19.07. 15:00 1012 - 2,3
Fr, 19.07. 14:00 1013 - 2,3
Fr, 19.07. 13:00 1014 - 2,0
Ortszeit Schneehöhe (cm)
Fr, 19.07. 14:00 -
Fr, 19.07. 8:00 -
Fr, 19.07. 2:00 -
Do, 18.07. 20:00 -
Do, 18.07. 14:00 -
Do, 18.07. 8:00 -
Do, 18.07. 2:00 -
Mi, 17.07. 20:00 -
Ortszeit Schneehöhe (cm)
Fr, 19.07. 19:00 -
Fr, 19.07. 18:00 -
Fr, 19.07. 17:00 -
Fr, 19.07. 16:00 -
Fr, 19.07. 15:00 -
Fr, 19.07. 14:00 -
Fr, 19.07. 13:00 -
Link zu dieser Seite / Seite empfehlen

Das Wetter in ...